Aérodrome :
LOGIN :

S'inscrire | Disclaimer

   EN    FR    IT 

 










Légende :    VFR   VFR Marginal   IFR   IFR Intensif   IFR Très Intensif
Visi : 
Plafond : 
>= 8 km
>= 3000ft
5 à 8 km
1000 à 3000 ft
1500m à 5 km
500 à 1000 ft
800 à 1500m
200 à 500 ft
< 800m
< 200 ft
Symboles :   Orages  Brouillard  Fortes neiges  Fortes précipitations  Vent > 20 kt
SIGMETs :   Divers  Orages  Givrage  Turbulence  Onde Orograph.  Cendres Volcan.







- Altitude de l'aérodrome : 197 ft
- Code IATA : XOG
- Voir les cartes d'approche


LFMO - Orange

DERNIER METAR :
  • 180100Z AUTO 34017KT CAVOK 03/M01 Q1028 NOSIG

METARs EXPIRÉS :
  • 180030Z AUTO 34017KT CAVOK 03/M01 Q1028 NOSIG
  • 180000Z AUTO 35013KT CAVOK 03/M01 Q1028 NOSIG
  • 172330Z AUTO 34016KT CAVOK 03/M01 Q1028 NOSIG
  • 172300Z AUTO 34019G30KT CAVOK 04/M00 Q1028 BECMG 35012KT
  • 172230Z AUTO 34018KT CAVOK 03/M00 Q1028 NOSIG

TAF TAF LFMO
Valide du 17 à 21h jusqu'au 18 à 21h UTC


172000Z 1721/1821 35012KT CAVOK
TEMPO 1809/1815 VRB02KT 4000 RA SCT005 BKN030
BECMG 1816/1818 35015G25KT SCT030
TEMPO 1818/1821 35020G35KT
Pas de NOTAMs connus pour ce terrain.



MET'MAP, la Météo Aéronautique d'un coup d'oeil ! - Copyright ORBIFLY Décembre 2007 - Disclaimer

ORBIFLY MET'MAP TEAM :

Programmation & Développement : Alexandra Zaïnal
Conception & Développement : Baudouin d'Aumeries
Co-Programmation & Développement : Marc-Olivier Méhu
Soutien technique & logistique : Manuel Goepfert

Contact : metmap@orbifly.com




SOURCES & CREDITS :

   NOAA